sensor_id;sensor_type;location;lat;lon;timestamp;temperature;humidity
24522;DHT22;12680;57.804;12.190;2024-03-17T00:01:03;1.20;99.90
24522;DHT22;12680;57.804;12.190;2024-03-17T00:03:30;1.20;99.90
24522;DHT22;12680;57.804;12.190;2024-03-17T00:06:00;1.20;99.90
24522;DHT22;12680;57.804;12.190;2024-03-17T00:08:26;1.20;99.90
24522;DHT22;12680;57.804;12.190;2024-03-17T00:10:53;1.20;99.90
24522;DHT22;12680;57.804;12.190;2024-03-17T00:13:20;1.20;99.90
24522;DHT22;12680;57.804;12.190;2024-03-17T00:15:48;1.30;99.90
24522;DHT22;12680;57.804;12.190;2024-03-17T00:18:15;1.30;99.90
24522;DHT22;12680;57.804;12.190;2024-03-17T00:20:41;1.30;99.90
24522;DHT22;12680;57.804;12.190;2024-03-17T00:23:07;1.30;99.90
24522;DHT22;12680;57.804;12.190;2024-03-17T00:25:35;1.20;99.90
24522;DHT22;12680;57.804;12.190;2024-03-17T00:28:01;1.20;99.90
24522;DHT22;12680;57.804;12.190;2024-03-17T00:30:27;1.20;99.90
24522;DHT22;12680;57.804;12.190;2024-03-17T00:32:53;1.20;99.90
24522;DHT22;12680;57.804;12.190;2024-03-17T00:35:19;1.20;99.90
24522;DHT22;12680;57.804;12.190;2024-03-17T00:37:48;1.20;99.90
24522;DHT22;12680;57.804;12.190;2024-03-17T00:40:15;1.20;99.90
24522;DHT22;12680;57.804;12.190;2024-03-17T00:42:42;1.20;99.90
24522;DHT22;12680;57.804;12.190;2024-03-17T00:45:10;1.20;99.90
24522;DHT22;12680;57.804;12.190;2024-03-17T00:47:37;1.20;99.90
24522;DHT22;12680;57.804;12.190;2024-03-17T00:50:04;1.20;99.90
24522;DHT22;12680;57.804;12.190;2024-03-17T00:52:30;1.20;99.90
24522;DHT22;12680;57.804;12.190;2024-03-17T00:54:56;1.20;99.90
24522;DHT22;12680;57.804;12.190;2024-03-17T00:57:22;1.20;99.90
24522;DHT22;12680;57.804;12.190;2024-03-17T00:59:48;1.20;99.90
24522;DHT22;12680;57.804;12.190;2024-03-17T01:02:16;1.20;99.90
24522;DHT22;12680;57.804;12.190;2024-03-17T01:04:43;1.20;99.90
24522;DHT22;12680;57.804;12.190;2024-03-17T01:07:09;1.20;99.90
24522;DHT22;12680;57.804;12.190;2024-03-17T01:09:35;1.20;99.90
24522;DHT22;12680;57.804;12.190;2024-03-17T01:12:02;1.20;99.90
24522;DHT22;12680;57.804;12.190;2024-03-17T01:14:28;1.40;99.90
24522;DHT22;12680;57.804;12.190;2024-03-17T01:16:55;1.20;99.90
24522;DHT22;12680;57.804;12.190;2024-03-17T01:19:21;1.20;99.90
24522;DHT22;12680;57.804;12.190;2024-03-17T01:21:47;1.20;99.90
24522;DHT22;12680;57.804;12.190;2024-03-17T01:24:13;1.10;99.90
24522;DHT22;12680;57.804;12.190;2024-03-17T01:26:39;1.10;99.90
24522;DHT22;12680;57.804;12.190;2024-03-17T01:29:04;1.10;99.90
24522;DHT22;12680;57.804;12.190;2024-03-17T01:31:30;1.00;99.90
24522;DHT22;12680;57.804;12.190;2024-03-17T01:33:56;0.90;99.90
24522;DHT22;12680;57.804;12.190;2024-03-17T01:36:22;0.90;99.90
24522;DHT22;12680;57.804;12.190;2024-03-17T01:38:48;0.80;99.90
24522;DHT22;12680;57.804;12.190;2024-03-17T01:41:14;0.80;99.90
24522;DHT22;12680;57.804;12.190;2024-03-17T01:48:37;0.80;99.90
24522;DHT22;12680;57.804;12.190;2024-03-17T01:51:02;0.60;99.90
24522;DHT22;12680;57.804;12.190;2024-03-17T01:53:29;0.60;99.90
24522;DHT22;12680;57.804;12.190;2024-03-17T01:55:57;0.50;99.90
24522;DHT22;12680;57.804;12.190;2024-03-17T01:58:25;0.50;99.90
24522;DHT22;12680;57.804;12.190;2024-03-17T02:00:51;0.40;99.90
24522;DHT22;12680;57.804;12.190;2024-03-17T02:03:17;0.30;99.90
24522;DHT22;12680;57.804;12.190;2024-03-17T02:05:44;0.30;99.90
24522;DHT22;12680;57.804;12.190;2024-03-17T02:08:11;0.20;99.90
24522;DHT22;12680;57.804;12.190;2024-03-17T02:10:39;0.30;99.90
24522;DHT22;12680;57.804;12.190;2024-03-17T02:13:06;0.20;99.90
24522;DHT22;12680;57.804;12.190;2024-03-17T02:15:32;0.20;99.90
24522;DHT22;12680;57.804;12.190;2024-03-17T02:17:58;0.20;99.90
24522;DHT22;12680;57.804;12.190;2024-03-17T02:20:25;0.10;99.90
24522;DHT22;12680;57.804;12.190;2024-03-17T02:23:11;0.10;99.90
24522;DHT22;12680;57.804;12.190;2024-03-17T02:25:37;0.00;99.90
24522;DHT22;12680;57.804;12.190;2024-03-17T02:32:57;-0.10;99.90
24522;DHT22;12680;57.804;12.190;2024-03-17T02:35:24;-0.10;99.90
24522;DHT22;12680;57.804;12.190;2024-03-17T02:37:50;-0.10;99.90
24522;DHT22;12680;57.804;12.190;2024-03-17T02:40:16;-0.10;99.90
24522;DHT22;12680;57.804;12.190;2024-03-17T02:42:45;-0.20;99.90
24522;DHT22;12680;57.804;12.190;2024-03-17T02:45:12;-0.20;99.90
24522;DHT22;12680;57.804;12.190;2024-03-17T02:47:38;-0.20;99.90
24522;DHT22;12680;57.804;12.190;2024-03-17T02:50:04;-0.20;99.90
24522;DHT22;12680;57.804;12.190;2024-03-17T02:52:30;-0.20;99.90
24522;DHT22;12680;57.804;12.190;2024-03-17T02:54:56;-0.20;99.90
24522;DHT22;12680;57.804;12.190;2024-03-17T02:57:22;-0.20;99.90
24522;DHT22;12680;57.804;12.190;2024-03-17T02:59:55;-0.20;99.90
24522;DHT22;12680;57.804;12.190;2024-03-17T03:02:21;-0.20;99.90
24522;DHT22;12680;57.804;12.190;2024-03-17T03:04:47;-0.20;99.90
24522;DHT22;12680;57.804;12.190;2024-03-17T03:07:12;-0.20;99.90
24522;DHT22;12680;57.804;12.190;2024-03-17T03:09:38;-0.20;99.90
24522;DHT22;12680;57.804;12.190;2024-03-17T03:12:04;-0.30;99.90
24522;DHT22;12680;57.804;12.190;2024-03-17T03:14:31;-0.30;99.90
24522;DHT22;12680;57.804;12.190;2024-03-17T03:16:57;-0.30;99.90
24522;DHT22;12680;57.804;12.190;2024-03-17T03:19:24;-0.30;99.90
24522;DHT22;12680;57.804;12.190;2024-03-17T03:21:50;-0.30;99.90
24522;DHT22;12680;57.804;12.190;2024-03-17T03:24:16;-0.30;99.90
24522;DHT22;12680;57.804;12.190;2024-03-17T03:26:43;-0.40;99.90
24522;DHT22;12680;57.804;12.190;2024-03-17T03:29:12;-0.40;99.90
24522;DHT22;12680;57.804;12.190;2024-03-17T03:31:40;-0.40;99.90
24522;DHT22;12680;57.804;12.190;2024-03-17T03:34:07;-0.40;99.90
24522;DHT22;12680;57.804;12.190;2024-03-17T03:36:38;-0.40;99.90
24522;DHT22;12680;57.804;12.190;2024-03-17T03:39:04;-0.40;99.90
24522;DHT22;12680;57.804;12.190;2024-03-17T03:41:31;-0.50;99.90
24522;DHT22;12680;57.804;12.190;2024-03-17T03:43:58;-0.50;99.90
24522;DHT22;12680;57.804;12.190;2024-03-17T03:46:24;-0.50;99.90
24522;DHT22;12680;57.804;12.190;2024-03-17T03:48:51;-0.50;99.90
24522;DHT22;12680;57.804;12.190;2024-03-17T03:51:17;-0.60;99.90
24522;DHT22;12680;57.804;12.190;2024-03-17T03:53:42;-0.50;99.90
24522;DHT22;12680;57.804;12.190;2024-03-17T03:56:08;-0.50;99.90
24522;DHT22;12680;57.804;12.190;2024-03-17T03:58:37;-0.50;99.90
24522;DHT22;12680;57.804;12.190;2024-03-17T04:01:07;-0.50;99.90
24522;DHT22;12680;57.804;12.190;2024-03-17T04:03:34;-0.40;99.90
24522;DHT22;12680;57.804;12.190;2024-03-17T04:06:09;-0.40;99.90
24522;DHT22;12680;57.804;12.190;2024-03-17T04:08:37;-0.50;99.90
24522;DHT22;12680;57.804;12.190;2024-03-17T04:11:05;-0.50;99.90
24522;DHT22;12680;57.804;12.190;2024-03-17T04:13:31;-0.50;99.90
24522;DHT22;12680;57.804;12.190;2024-03-17T04:15:57;-0.60;99.90
24522;DHT22;12680;57.804;12.190;2024-03-17T04:18:27;-0.60;99.90
24522;DHT22;12680;57.804;12.190;2024-03-17T04:21:02;-0.70;99.90
24522;DHT22;12680;57.804;12.190;2024-03-17T04:23:29;-0.70;99.90
24522;DHT22;12680;57.804;12.190;2024-03-17T04:25:56;-0.80;99.90
24522;DHT22;12680;57.804;12.190;2024-03-17T04:28:22;-0.80;99.90
24522;DHT22;12680;57.804;12.190;2024-03-17T04:30:48;0.30;99.90
24522;DHT22;12680;57.804;12.190;2024-03-17T04:33:13;-0.90;99.90
24522;DHT22;12680;57.804;12.190;2024-03-17T04:35:40;-0.90;99.90
24522;DHT22;12680;57.804;12.190;2024-03-17T04:38:06;-0.80;99.90
24522;DHT22;12680;57.804;12.190;2024-03-17T04:40:42;-0.80;99.90
24522;DHT22;12680;57.804;12.190;2024-03-17T04:43:08;-0.90;99.90
24522;DHT22;12680;57.804;12.190;2024-03-17T04:45:34;-0.90;99.90
24522;DHT22;12680;57.804;12.190;2024-03-17T04:48:00;-0.90;99.90
24522;DHT22;12680;57.804;12.190;2024-03-17T04:50:26;-0.90;99.90
24522;DHT22;12680;57.804;12.190;2024-03-17T04:52:52;-0.90;99.90
24522;DHT22;12680;57.804;12.190;2024-03-17T04:55:18;-0.90;99.90
24522;DHT22;12680;57.804;12.190;2024-03-17T04:57:45;-0.90;99.90
24522;DHT22;12680;57.804;12.190;2024-03-17T05:00:11;-0.90;99.90
24522;DHT22;12680;57.804;12.190;2024-03-17T05:02:40;-0.90;99.90
24522;DHT22;12680;57.804;12.190;2024-03-17T05:05:06;-0.90;99.90
24522;DHT22;12680;57.804;12.190;2024-03-17T05:07:34;-0.90;99.90
24522;DHT22;12680;57.804;12.190;2024-03-17T05:10:00;-0.90;99.90
24522;DHT22;12680;57.804;12.190;2024-03-17T05:12:26;-0.90;99.90
24522;DHT22;12680;57.804;12.190;2024-03-17T05:14:52;-0.90;99.90
24522;DHT22;12680;57.804;12.190;2024-03-17T05:17:18;-1.00;99.90
24522;DHT22;12680;57.804;12.190;2024-03-17T05:19:44;-0.90;99.90
24522;DHT22;12680;57.804;12.190;2024-03-17T05:22:09;-0.90;99.90
24522;DHT22;12680;57.804;12.190;2024-03-17T05:24:36;-0.90;99.90
24522;DHT22;12680;57.804;12.190;2024-03-17T05:27:02;-0.90;99.90
24522;DHT22;12680;57.804;12.190;2024-03-17T05:29:27;-0.80;99.90
24522;DHT22;12680;57.804;12.190;2024-03-17T05:31:53;-0.80;99.90
24522;DHT22;12680;57.804;12.190;2024-03-17T05:34:19;-0.80;99.90
24522;DHT22;12680;57.804;12.190;2024-03-17T05:36:45;-0.80;99.90
24522;DHT22;12680;57.804;12.190;2024-03-17T05:39:12;-0.80;99.90
24522;DHT22;12680;57.804;12.190;2024-03-17T05:41:38;-0.80;99.90
24522;DHT22;12680;57.804;12.190;2024-03-17T05:44:04;-0.70;99.90
24522;DHT22;12680;57.804;12.190;2024-03-17T05:46:30;-0.70;99.90
24522;DHT22;12680;57.804;12.190;2024-03-17T05:48:56;-0.70;99.90
24522;DHT22;12680;57.804;12.190;2024-03-17T05:51:22;-0.70;99.90
24522;DHT22;12680;57.804;12.190;2024-03-17T05:53:48;-0.70;99.90
24522;DHT22;12680;57.804;12.190;2024-03-17T05:56:14;-0.70;99.90
24522;DHT22;12680;57.804;12.190;2024-03-17T05:58:42;-0.60;99.90
24522;DHT22;12680;57.804;12.190;2024-03-17T06:01:08;-0.50;99.90
24522;DHT22;12680;57.804;12.190;2024-03-17T06:03:38;-0.50;99.90
24522;DHT22;12680;57.804;12.190;2024-03-17T06:06:05;-0.50;99.90
24522;DHT22;12680;57.804;12.190;2024-03-17T06:08:36;-0.50;99.90
24522;DHT22;12680;57.804;12.190;2024-03-17T06:11:01;-0.50;99.90
24522;DHT22;12680;57.804;12.190;2024-03-17T06:13:27;-0.50;99.90
24522;DHT22;12680;57.804;12.190;2024-03-17T06:15:54;0.60;99.90
24522;DHT22;12680;57.804;12.190;2024-03-17T06:18:20;-0.40;99.90
24522;DHT22;12680;57.804;12.190;2024-03-17T06:20:47;-0.30;99.90
24522;DHT22;12680;57.804;12.190;2024-03-17T06:23:16;-0.30;99.90
24522;DHT22;12680;57.804;12.190;2024-03-17T06:25:44;-0.30;99.90
24522;DHT22;12680;57.804;12.190;2024-03-17T06:28:11;-0.30;99.90
24522;DHT22;12680;57.804;12.190;2024-03-17T06:30:54;-0.30;99.90
24522;DHT22;12680;57.804;12.190;2024-03-17T06:33:21;-0.30;99.90
24522;DHT22;12680;57.804;12.190;2024-03-17T06:35:47;-0.30;99.90
24522;DHT22;12680;57.804;12.190;2024-03-17T06:38:14;-0.30;99.90
24522;DHT22;12680;57.804;12.190;2024-03-17T06:40:41;-0.20;99.90
24522;DHT22;12680;57.804;12.190;2024-03-17T06:43:07;-0.20;99.90
24522;DHT22;12680;57.804;12.190;2024-03-17T06:45:33;-0.10;99.90
24522;DHT22;12680;57.804;12.190;2024-03-17T06:47:59;0.00;99.90
24522;DHT22;12680;57.804;12.190;2024-03-17T06:50:25;0.00;99.90
24522;DHT22;12680;57.804;12.190;2024-03-17T06:52:51;0.00;99.90
24522;DHT22;12680;57.804;12.190;2024-03-17T06:55:20;-0.10;99.90
24522;DHT22;12680;57.804;12.190;2024-03-17T06:57:50;-0.10;99.90
24522;DHT22;12680;57.804;12.190;2024-03-17T07:00:16;-0.10;99.90
24522;DHT22;12680;57.804;12.190;2024-03-17T07:02:49;-0.10;99.90
24522;DHT22;12680;57.804;12.190;2024-03-17T07:05:15;-0.10;99.90
24522;DHT22;12680;57.804;12.190;2024-03-17T07:07:42;0.00;99.90
24522;DHT22;12680;57.804;12.190;2024-03-17T07:10:08;-0.10;99.90
24522;DHT22;12680;57.804;12.190;2024-03-17T07:12:34;0.00;99.90
24522;DHT22;12680;57.804;12.190;2024-03-17T07:15:00;0.00;99.90
24522;DHT22;12680;57.804;12.190;2024-03-17T07:17:25;0.00;99.90
24522;DHT22;12680;57.804;12.190;2024-03-17T07:19:52;0.10;99.90
24522;DHT22;12680;57.804;12.190;2024-03-17T07:22:17;0.10;99.90
24522;DHT22;12680;57.804;12.190;2024-03-17T07:24:43;0.20;99.90
24522;DHT22;12680;57.804;12.190;2024-03-17T07:27:10;0.20;99.90
24522;DHT22;12680;57.804;12.190;2024-03-17T07:29:39;0.20;99.90
24522;DHT22;12680;57.804;12.190;2024-03-17T07:32:05;0.30;99.90
24522;DHT22;12680;57.804;12.190;2024-03-17T07:34:32;0.30;99.90
24522;DHT22;12680;57.804;12.190;2024-03-17T07:36:59;0.30;99.90
24522;DHT22;12680;57.804;12.190;2024-03-17T07:39:32;0.40;99.90
24522;DHT22;12680;57.804;12.190;2024-03-17T07:41:59;0.40;99.90
24522;DHT22;12680;57.804;12.190;2024-03-17T07:44:25;0.50;99.90
24522;DHT22;12680;57.804;12.190;2024-03-17T07:46:54;0.50;99.90
24522;DHT22;12680;57.804;12.190;2024-03-17T07:49:20;0.60;99.90
24522;DHT22;12680;57.804;12.190;2024-03-17T07:51:45;0.70;99.90
24522;DHT22;12680;57.804;12.190;2024-03-17T07:54:11;0.80;99.90
24522;DHT22;12680;57.804;12.190;2024-03-17T07:56:39;0.80;99.90
24522;DHT22;12680;57.804;12.190;2024-03-17T07:59:05;0.90;99.90
24522;DHT22;12680;57.804;12.190;2024-03-17T08:01:37;0.90;99.90
24522;DHT22;12680;57.804;12.190;2024-03-17T08:04:04;1.00;99.90
24522;DHT22;12680;57.804;12.190;2024-03-17T08:06:30;1.00;99.90
24522;DHT22;12680;57.804;12.190;2024-03-17T08:08:56;1.00;99.90
24522;DHT22;12680;57.804;12.190;2024-03-17T08:11:23;1.00;99.90
24522;DHT22;12680;57.804;12.190;2024-03-17T08:13:48;1.10;99.90
24522;DHT22;12680;57.804;12.190;2024-03-17T08:16:14;1.10;99.90
24522;DHT22;12680;57.804;12.190;2024-03-17T08:18:41;1.10;99.90
24522;DHT22;12680;57.804;12.190;2024-03-17T08:21:07;1.10;99.90
24522;DHT22;12680;57.804;12.190;2024-03-17T08:23:33;1.20;99.90
24522;DHT22;12680;57.804;12.190;2024-03-17T08:26:01;1.30;99.90
24522;DHT22;12680;57.804;12.190;2024-03-17T08:28:28;1.40;99.90
24522;DHT22;12680;57.804;12.190;2024-03-17T08:30:55;1.50;99.90
24522;DHT22;12680;57.804;12.190;2024-03-17T08:33:22;1.50;99.90
24522;DHT22;12680;57.804;12.190;2024-03-17T08:36:01;1.60;99.90
24522;DHT22;12680;57.804;12.190;2024-03-17T08:38:28;1.60;99.90
24522;DHT22;12680;57.804;12.190;2024-03-17T08:40:55;1.70;99.90
24522;DHT22;12680;57.804;12.190;2024-03-17T08:43:21;1.80;99.90
24522;DHT22;12680;57.804;12.190;2024-03-17T08:46:05;1.90;99.90
24522;DHT22;12680;57.804;12.190;2024-03-17T08:48:33;1.90;99.90
24522;DHT22;12680;57.804;12.190;2024-03-17T08:51:01;2.00;99.90
24522;DHT22;12680;57.804;12.190;2024-03-17T08:53:27;2.10;99.90
24522;DHT22;12680;57.804;12.190;2024-03-17T08:55:54;2.20;99.90
24522;DHT22;12680;57.804;12.190;2024-03-17T08:58:20;2.20;99.90
24522;DHT22;12680;57.804;12.190;2024-03-17T09:00:46;2.40;99.90
24522;DHT22;12680;57.804;12.190;2024-03-17T09:03:13;2.40;99.90
24522;DHT22;12680;57.804;12.190;2024-03-17T09:05:40;2.50;99.90
24522;DHT22;12680;57.804;12.190;2024-03-17T09:08:20;2.50;99.90
24522;DHT22;12680;57.804;12.190;2024-03-17T09:10:48;2.60;99.90
24522;DHT22;12680;57.804;12.190;2024-03-17T09:13:22;2.60;99.90
24522;DHT22;12680;57.804;12.190;2024-03-17T09:15:59;2.60;99.90
24522;DHT22;12680;57.804;12.190;2024-03-17T09:18:26;2.60;99.90
24522;DHT22;12680;57.804;12.190;2024-03-17T09:21:00;2.70;99.90
24522;DHT22;12680;57.804;12.190;2024-03-17T09:23:27;2.80;99.90
24522;DHT22;12680;57.804;12.190;2024-03-17T09:26:03;2.90;99.90
24522;DHT22;12680;57.804;12.190;2024-03-17T09:28:30;2.00;99.90
24522;DHT22;12680;57.804;12.190;2024-03-17T09:30:56;3.00;99.90
24522;DHT22;12680;57.804;12.190;2024-03-17T09:33:23;3.10;99.90
24522;DHT22;12680;57.804;12.190;2024-03-17T09:35:57;3.00;99.90
24522;DHT22;12680;57.804;12.190;2024-03-17T09:38:23;3.00;99.90
24522;DHT22;12680;57.804;12.190;2024-03-17T09:40:50;3.00;99.90
24522;DHT22;12680;57.804;12.190;2024-03-17T09:43:22;3.10;99.90
24522;DHT22;12680;57.804;12.190;2024-03-17T09:45:49;3.10;99.90
24522;DHT22;12680;57.804;12.190;2024-03-17T09:48:17;3.10;99.90
24522;DHT22;12680;57.804;12.190;2024-03-17T09:50:54;3.10;99.90
24522;DHT22;12680;57.804;12.190;2024-03-17T09:55:54;3.10;99.90
24522;DHT22;12680;57.804;12.190;2024-03-17T09:58:21;3.20;99.90
24522;DHT22;12680;57.804;12.190;2024-03-17T10:00:47;3.20;99.90
24522;DHT22;12680;57.804;12.190;2024-03-17T10:03:40;3.20;99.90
24522;DHT22;12680;57.804;12.190;2024-03-17T10:06:14;3.30;99.90
24522;DHT22;12680;57.804;12.190;2024-03-17T10:11:14;3.30;99.90
24522;DHT22;12680;57.804;12.190;2024-03-17T10:13:45;3.40;99.90
24522;DHT22;12680;57.804;12.190;2024-03-17T10:16:22;3.40;99.90
24522;DHT22;12680;57.804;12.190;2024-03-17T10:18:49;3.40;99.90
24522;DHT22;12680;57.804;12.190;2024-03-17T10:21:26;3.50;99.90
24522;DHT22;12680;57.804;12.190;2024-03-17T10:26:47;3.60;99.90
24522;DHT22;12680;57.804;12.190;2024-03-17T10:29:20;3.70;99.90
24522;DHT22;12680;57.804;12.190;2024-03-17T10:31:48;3.70;99.90
24522;DHT22;12680;57.804;12.190;2024-03-17T10:34:15;3.80;99.90
24522;DHT22;12680;57.804;12.190;2024-03-17T10:36:45;3.90;99.90
24522;DHT22;12680;57.804;12.190;2024-03-17T10:39:31;3.90;99.90
24522;DHT22;12680;57.804;12.190;2024-03-17T10:42:01;4.00;99.90
24522;DHT22;12680;57.804;12.190;2024-03-17T10:44:31;4.00;99.90
24522;DHT22;12680;57.804;12.190;2024-03-17T10:46:58;4.10;99.90
24522;DHT22;12680;57.804;12.190;2024-03-17T10:49:32;4.10;99.90
24522;DHT22;12680;57.804;12.190;2024-03-17T10:52:03;4.20;99.90
24522;DHT22;12680;57.804;12.190;2024-03-17T10:54:33;4.30;99.90
24522;DHT22;12680;57.804;12.190;2024-03-17T11:00:02;4.30;99.90
24522;DHT22;12680;57.804;12.190;2024-03-17T11:02:31;4.40;99.90
24522;DHT22;12680;57.804;12.190;2024-03-17T11:05:05;4.40;99.90
24522;DHT22;12680;57.804;12.190;2024-03-17T11:07:33;4.50;99.90
24522;DHT22;12680;57.804;12.190;2024-03-17T11:10:03;4.60;99.90
24522;DHT22;12680;57.804;12.190;2024-03-17T11:12:43;4.50;99.90
24522;DHT22;12680;57.804;12.190;2024-03-17T11:20:39;4.70;99.90
24522;DHT22;12680;57.804;12.190;2024-03-17T11:23:05;4.80;99.90
24522;DHT22;12680;57.804;12.190;2024-03-17T11:28:00;4.90;99.90
24522;DHT22;12680;57.804;12.190;2024-03-17T11:30:48;5.00;99.90
24522;DHT22;12680;57.804;12.190;2024-03-17T11:41:43;5.10;99.90
24522;DHT22;12680;57.804;12.190;2024-03-17T11:49:29;5.20;99.90
24522;DHT22;12680;57.804;12.190;2024-03-17T11:51:56;5.30;99.90
24522;DHT22;12680;57.804;12.190;2024-03-17T11:54:27;5.30;99.90
24522;DHT22;12680;57.804;12.190;2024-03-17T11:56:54;5.30;99.90
24522;DHT22;12680;57.804;12.190;2024-03-17T11:59:21;5.30;99.90
24522;DHT22;12680;57.804;12.190;2024-03-17T12:01:51;5.30;99.90
24522;DHT22;12680;57.804;12.190;2024-03-17T12:04:18;5.30;99.90
24522;DHT22;12680;57.804;12.190;2024-03-17T12:06:49;5.30;99.30
24522;DHT22;12680;57.804;12.190;2024-03-17T12:09:23;5.30;99.50
24522;DHT22;12680;57.804;12.190;2024-03-17T12:12:03;5.30;99.90
24522;DHT22;12680;57.804;12.190;2024-03-17T12:14:31;5.50;99.90
24522;DHT22;12680;57.804;12.190;2024-03-17T12:17:02;5.60;99.70
24522;DHT22;12680;57.804;12.190;2024-03-17T12:19:28;5.60;99.70
24522;DHT22;12680;57.804;12.190;2024-03-17T12:21:56;5.60;99.20
24522;DHT22;12680;57.804;12.190;2024-03-17T12:24:26;5.60;99.60
24522;DHT22;12680;57.804;12.190;2024-03-17T12:26:54;5.70;99.50
24522;DHT22;12680;57.804;12.190;2024-03-17T12:31:54;5.70;98.60
24522;DHT22;12680;57.804;12.190;2024-03-17T12:34:22;5.70;98.40
24522;DHT22;12680;57.804;12.190;2024-03-17T12:36:48;5.60;98.00
24522;DHT22;12680;57.804;12.190;2024-03-17T12:39:19;5.60;98.40
24522;DHT22;12680;57.804;12.190;2024-03-17T12:41:45;5.60;98.20
24522;DHT22;12680;57.804;12.190;2024-03-17T12:44:25;5.70;98.50
24522;DHT22;12680;57.804;12.190;2024-03-17T12:46:55;5.70;98.30
24522;DHT22;12680;57.804;12.190;2024-03-17T12:49:22;5.70;98.60
24522;DHT22;12680;57.804;12.190;2024-03-17T12:51:51;5.80;98.40
24522;DHT22;12680;57.804;12.190;2024-03-17T12:54:20;5.80;98.00
24522;DHT22;12680;57.804;12.190;2024-03-17T12:56:46;5.80;98.20
24522;DHT22;12680;57.804;12.190;2024-03-17T12:59:41;5.90;98.20
24522;DHT22;12680;57.804;12.190;2024-03-17T13:02:26;5.90;97.80
24522;DHT22;12680;57.804;12.190;2024-03-17T13:05:19;6.00;98.10
24522;DHT22;12680;57.804;12.190;2024-03-17T13:07:46;6.00;97.90
24522;DHT22;12680;57.804;12.190;2024-03-17T13:10:16;6.60;98.00
24522;DHT22;12680;57.804;12.190;2024-03-17T13:12:46;5.90;97.90
24522;DHT22;12680;57.804;12.190;2024-03-17T13:15:14;6.00;97.70
24522;DHT22;12680;57.804;12.190;2024-03-17T13:17:44;5.90;97.90
24522;DHT22;12680;57.804;12.190;2024-03-17T13:20:17;6.00;97.30
24522;DHT22;12680;57.804;12.190;2024-03-17T13:22:43;6.00;97.40
24522;DHT22;12680;57.804;12.190;2024-03-17T13:25:15;6.10;97.50
24522;DHT22;12680;57.804;12.190;2024-03-17T13:27:45;6.00;96.50
24522;DHT22;12680;57.804;12.190;2024-03-17T13:30:12;6.00;96.60
24522;DHT22;12680;57.804;12.190;2024-03-17T13:32:39;5.90;96.70
24522;DHT22;12680;57.804;12.190;2024-03-17T13:35:13;5.80;96.30
24522;DHT22;12680;57.804;12.190;2024-03-17T13:37:39;5.80;96.50
24522;DHT22;12680;57.804;12.190;2024-03-17T13:40:06;5.80;96.50
24522;DHT22;12680;57.804;12.190;2024-03-17T13:42:32;5.80;96.40
24522;DHT22;12680;57.804;12.190;2024-03-17T13:44:58;5.80;96.40
24522;DHT22;12680;57.804;12.190;2024-03-17T13:47:24;5.70;96.30
24522;DHT22;12680;57.804;12.190;2024-03-17T13:49:50;5.80;96.80
24522;DHT22;12680;57.804;12.190;2024-03-17T13:52:16;5.90;96.80
24522;DHT22;12680;57.804;12.190;2024-03-17T13:54:42;6.00;96.90
24522;DHT22;12680;57.804;12.190;2024-03-17T13:57:08;6.00;96.80
24522;DHT22;12680;57.804;12.190;2024-03-17T13:59:33;6.10;96.90
24522;DHT22;12680;57.804;12.190;2024-03-17T14:01:59;6.00;96.20
24522;DHT22;12680;57.804;12.190;2024-03-17T14:04:25;6.00;96.20
24522;DHT22;12680;57.804;12.190;2024-03-17T14:06:51;6.00;95.90
24522;DHT22;12680;57.804;12.190;2024-03-17T14:09:17;6.00;96.40
24522;DHT22;12680;57.804;12.190;2024-03-17T14:11:46;5.90;95.70
24522;DHT22;12680;57.804;12.190;2024-03-17T14:14:12;5.80;95.90
24522;DHT22;12680;57.804;12.190;2024-03-17T14:16:38;5.80;96.40
24522;DHT22;12680;57.804;12.190;2024-03-17T14:19:06;5.90;96.50
24522;DHT22;12680;57.804;12.190;2024-03-17T14:21:32;6.00;96.60
24522;DHT22;12680;57.804;12.190;2024-03-17T14:23:58;6.00;96.50
24522;DHT22;12680;57.804;12.190;2024-03-17T14:26:25;6.00;95.60
24522;DHT22;12680;57.804;12.190;2024-03-17T14:28:51;5.90;95.70
24522;DHT22;12680;57.804;12.190;2024-03-17T14:31:17;5.90;95.60
24522;DHT22;12680;57.804;12.190;2024-03-17T14:33:44;5.80;95.80
24522;DHT22;12680;57.804;12.190;2024-03-17T14:36:10;5.90;96.20
24522;DHT22;12680;57.804;12.190;2024-03-17T14:38:35;5.90;96.20
24522;DHT22;12680;57.804;12.190;2024-03-17T14:41:02;6.10;96.20
24522;DHT22;12680;57.804;12.190;2024-03-17T14:43:30;6.00;95.40
24522;DHT22;12680;57.804;12.190;2024-03-17T14:45:56;6.00;95.40
24522;DHT22;12680;57.804;12.190;2024-03-17T14:48:22;6.00;95.20
24522;DHT22;12680;57.804;12.190;2024-03-17T14:50:49;5.90;94.50
24522;DHT22;12680;57.804;12.190;2024-03-17T14:53:14;5.80;94.40
24522;DHT22;12680;57.804;12.190;2024-03-17T14:55:42;5.80;94.30
24522;DHT22;12680;57.804;12.190;2024-03-17T14:58:09;5.80;94.40
24522;DHT22;12680;57.804;12.190;2024-03-17T15:00:35;5.80;93.70
24522;DHT22;12680;57.804;12.190;2024-03-17T15:03:01;5.70;93.50
24522;DHT22;12680;57.804;12.190;2024-03-17T15:05:27;5.70;93.50
24522;DHT22;12680;57.804;12.190;2024-03-17T15:07:53;5.70;93.50
24522;DHT22;12680;57.804;12.190;2024-03-17T15:10:19;5.70;93.70
24522;DHT22;12680;57.804;12.190;2024-03-17T15:12:47;5.70;92.90
24522;DHT22;12680;57.804;12.190;2024-03-17T15:15:14;7.40;93.80
24522;DHT22;12680;57.804;12.190;2024-03-17T15:17:40;5.60;93.20
24522;DHT22;12680;57.804;12.190;2024-03-17T15:20:06;5.50;93.10
24522;DHT22;12680;57.804;12.190;2024-03-17T15:22:48;5.40;93.10
24522;DHT22;12680;57.804;12.190;2024-03-17T15:25:17;5.40;93.00
24522;DHT22;12680;57.804;12.190;2024-03-17T15:27:44;5.30;92.70
24522;DHT22;12680;57.804;12.190;2024-03-17T15:30:15;5.20;93.00
24522;DHT22;12680;57.804;12.190;2024-03-17T15:32:50;5.20;93.00
24522;DHT22;12680;57.804;12.190;2024-03-17T15:35:21;5.20;93.10
24522;DHT22;12680;57.804;12.190;2024-03-17T15:37:47;5.30;93.40
24522;DHT22;12680;57.804;12.190;2024-03-17T15:40:13;5.40;93.60
24522;DHT22;12680;57.804;12.190;2024-03-17T15:42:46;5.40;92.90
24522;DHT22;12680;57.804;12.190;2024-03-17T15:45:13;5.40;93.40
24522;DHT22;12680;57.804;12.190;2024-03-17T15:47:39;5.40;93.10
24522;DHT22;12680;57.804;12.190;2024-03-17T15:50:05;5.40;93.30
24522;DHT22;12680;57.804;12.190;2024-03-17T15:52:31;5.50;93.40
24522;DHT22;12680;57.804;12.190;2024-03-17T15:54:57;5.60;93.30
24522;DHT22;12680;57.804;12.190;2024-03-17T15:57:25;5.60;93.00
24522;DHT22;12680;57.804;12.190;2024-03-17T15:59:51;5.60;93.20
24522;DHT22;12680;57.804;12.190;2024-03-17T16:02:20;5.70;93.50
24522;DHT22;12680;57.804;12.190;2024-03-17T16:04:50;5.70;93.50
24522;DHT22;12680;57.804;12.190;2024-03-17T16:07:19;5.70;93.60
24522;DHT22;12680;57.804;12.190;2024-03-17T16:09:48;5.70;93.20
24522;DHT22;12680;57.804;12.190;2024-03-17T16:12:14;5.60;93.50
24522;DHT22;12680;57.804;12.190;2024-03-17T16:14:43;5.50;93.60
24522;DHT22;12680;57.804;12.190;2024-03-17T16:17:11;5.40;93.70